sensor_id;sensor_type;location;lat;lon;timestamp;P1;durP1;ratioP1;P2;durP2;ratioP2
5549;SDS011;2798;42.716;23.256;2023-03-02T00:01:46;4.23;;;3.60;;
5549;SDS011;2798;42.716;23.256;2023-03-02T00:06:47;4.00;;;3.47;;
5549;SDS011;2798;42.716;23.256;2023-03-02T00:09:14;3.83;;;3.53;;
5549;SDS011;2798;42.716;23.256;2023-03-02T00:11:39;3.80;;;3.40;;
5549;SDS011;2798;42.716;23.256;2023-03-02T00:14:05;4.83;;;3.80;;
5549;SDS011;2798;42.716;23.256;2023-03-02T00:16:30;3.87;;;3.50;;
5549;SDS011;2798;42.716;23.256;2023-03-02T00:18:57;4.90;;;3.80;;
5549;SDS011;2798;42.716;23.256;2023-03-02T00:21:23;4.40;;;3.77;;
5549;SDS011;2798;42.716;23.256;2023-03-02T00:23:48;4.17;;;3.70;;
5549;SDS011;2798;42.716;23.256;2023-03-02T00:26:14;4.43;;;3.60;;
5549;SDS011;2798;42.716;23.256;2023-03-02T00:28:39;4.73;;;3.77;;
5549;SDS011;2798;42.716;23.256;2023-03-02T00:31:04;6.83;;;3.57;;
5549;SDS011;2798;42.716;23.256;2023-03-02T00:33:30;4.60;;;4.00;;
5549;SDS011;2798;42.716;23.256;2023-03-02T00:35:56;4.80;;;2.90;;
5549;SDS011;2798;42.716;23.256;2023-03-02T00:38:21;3.60;;;3.30;;
5549;SDS011;2798;42.716;23.256;2023-03-02T00:40:47;5.50;;;3.87;;
5549;SDS011;2798;42.716;23.256;2023-03-02T00:43:13;5.30;;;4.10;;
5549;SDS011;2798;42.716;23.256;2023-03-02T00:45:38;3.53;;;3.17;;
5549;SDS011;2798;42.716;23.256;2023-03-02T00:48:04;4.03;;;3.63;;
5549;SDS011;2798;42.716;23.256;2023-03-02T00:50:29;3.77;;;3.10;;
5549;SDS011;2798;42.716;23.256;2023-03-02T00:52:54;3.53;;;3.03;;
5549;SDS011;2798;42.716;23.256;2023-03-02T00:55:20;3.17;;;2.87;;
5549;SDS011;2798;42.716;23.256;2023-03-02T00:57:45;3.30;;;3.00;;
5549;SDS011;2798;42.716;23.256;2023-03-02T01:00:19;3.10;;;2.80;;
5549;SDS011;2798;42.716;23.256;2023-03-02T01:02:44;3.00;;;2.60;;
5549;SDS011;2798;42.716;23.256;2023-03-02T01:05:09;3.30;;;2.77;;
5549;SDS011;2798;42.716;23.256;2023-03-02T01:07:34;4.03;;;2.90;;
5549;SDS011;2798;42.716;23.256;2023-03-02T01:12:54;3.37;;;2.77;;
5549;SDS011;2798;42.716;23.256;2023-03-02T01:15:19;2.70;;;2.50;;
5549;SDS011;2798;42.716;23.256;2023-03-02T01:17:44;2.37;;;2.27;;
5549;SDS011;2798;42.716;23.256;2023-03-02T01:20:10;2.77;;;2.43;;
5549;SDS011;2798;42.716;23.256;2023-03-02T01:22:36;2.53;;;2.33;;
5549;SDS011;2798;42.716;23.256;2023-03-02T01:25:02;1.77;;;1.67;;
5549;SDS011;2798;42.716;23.256;2023-03-02T01:27:27;2.33;;;2.00;;
5549;SDS011;2798;42.716;23.256;2023-03-02T01:29:52;2.57;;;2.00;;
5549;SDS011;2798;42.716;23.256;2023-03-02T01:32:18;2.07;;;1.97;;
5549;SDS011;2798;42.716;23.256;2023-03-02T01:34:43;1.90;;;1.63;;
5549;SDS011;2798;42.716;23.256;2023-03-02T01:37:09;1.80;;;1.70;;
5549;SDS011;2798;42.716;23.256;2023-03-02T01:39:34;3.27;;;2.00;;
5549;SDS011;2798;42.716;23.256;2023-03-02T01:41:59;2.40;;;2.20;;
5549;SDS011;2798;42.716;23.256;2023-03-02T01:44:38;3.13;;;1.93;;
5549;SDS011;2798;42.716;23.256;2023-03-02T01:47:23;2.13;;;1.93;;
5549;SDS011;2798;42.716;23.256;2023-03-02T01:50:03;3.50;;;2.07;;
5549;SDS011;2798;42.716;23.256;2023-03-02T01:52:30;3.50;;;2.10;;
5549;SDS011;2798;42.716;23.256;2023-03-02T01:54:56;2.60;;;1.70;;
5549;SDS011;2798;42.716;23.256;2023-03-02T01:57:24;2.53;;;2.00;;
5549;SDS011;2798;42.716;23.256;2023-03-02T01:59:55;2.00;;;1.77;;
5549;SDS011;2798;42.716;23.256;2023-03-02T02:02:23;2.07;;;1.77;;
5549;SDS011;2798;42.716;23.256;2023-03-02T02:04:49;1.70;;;1.60;;
5549;SDS011;2798;42.716;23.256;2023-03-02T02:07:14;1.60;;;1.50;;
5549;SDS011;2798;42.716;23.256;2023-03-02T02:09:42;2.07;;;1.87;;
5549;SDS011;2798;42.716;23.256;2023-03-02T02:12:19;2.30;;;2.10;;
5549;SDS011;2798;42.716;23.256;2023-03-02T02:14:45;1.60;;;1.50;;
5549;SDS011;2798;42.716;23.256;2023-03-02T02:17:11;1.90;;;1.63;;
5549;SDS011;2798;42.716;23.256;2023-03-02T02:22:14;2.20;;;1.87;;
5549;SDS011;2798;42.716;23.256;2023-03-02T02:24:43;1.83;;;1.73;;
5549;SDS011;2798;42.716;23.256;2023-03-02T02:27:09;2.63;;;2.27;;
5549;SDS011;2798;42.716;23.256;2023-03-02T02:29:36;3.33;;;1.77;;
5549;SDS011;2798;42.716;23.256;2023-03-02T02:32:09;1.63;;;1.53;;
5549;SDS011;2798;42.716;23.256;2023-03-02T02:37:41;1.50;;;1.40;;
5549;SDS011;2798;42.716;23.256;2023-03-02T02:40:11;2.87;;;1.80;;
5549;SDS011;2798;42.716;23.256;2023-03-02T02:42:39;2.60;;;1.90;;
5549;SDS011;2798;42.716;23.256;2023-03-02T02:45:15;2.00;;;1.83;;
5549;SDS011;2798;42.716;23.256;2023-03-02T02:47:41;1.80;;;1.70;;
5549;SDS011;2798;42.716;23.256;2023-03-02T02:50:08;1.87;;;1.77;;
5549;SDS011;2798;42.716;23.256;2023-03-02T02:52:40;1.47;;;1.37;;
5549;SDS011;2798;42.716;23.256;2023-03-02T02:55:08;1.60;;;1.50;;
5549;SDS011;2798;42.716;23.256;2023-03-02T02:57:34;3.57;;;1.77;;
5549;SDS011;2798;42.716;23.256;2023-03-02T03:00:00;3.70;;;1.80;;
5549;SDS011;2798;42.716;23.256;2023-03-02T03:02:27;2.63;;;1.90;;
5549;SDS011;2798;42.716;23.256;2023-03-02T03:04:53;1.60;;;1.50;;
5549;SDS011;2798;42.716;23.256;2023-03-02T03:07:27;1.60;;;1.50;;
5549;SDS011;2798;42.716;23.256;2023-03-02T03:09:58;1.60;;;1.50;;
5549;SDS011;2798;42.716;23.256;2023-03-02T03:12:25;1.50;;;1.37;;
5549;SDS011;2798;42.716;23.256;2023-03-02T03:14:52;1.60;;;1.50;;
5549;SDS011;2798;42.716;23.256;2023-03-02T03:17:17;1.80;;;1.50;;
5549;SDS011;2798;42.716;23.256;2023-03-02T03:19:43;1.70;;;1.60;;
5549;SDS011;2798;42.716;23.256;2023-03-02T03:22:10;1.73;;;1.63;;
5549;SDS011;2798;42.716;23.256;2023-03-02T03:24:39;1.70;;;1.50;;
5549;SDS011;2798;42.716;23.256;2023-03-02T03:27:06;1.70;;;1.60;;
5549;SDS011;2798;42.716;23.256;2023-03-02T03:29:32;1.30;;;1.30;;
5549;SDS011;2798;42.716;23.256;2023-03-02T03:31:58;1.57;;;1.47;;
5549;SDS011;2798;42.716;23.256;2023-03-02T03:34:24;1.37;;;1.37;;
5549;SDS011;2798;42.716;23.256;2023-03-02T03:36:50;1.30;;;1.20;;
5549;SDS011;2798;42.716;23.256;2023-03-02T03:39:15;2.33;;;1.20;;
5549;SDS011;2798;42.716;23.256;2023-03-02T03:41:41;2.20;;;1.83;;
5549;SDS011;2798;42.716;23.256;2023-03-02T03:44:06;1.67;;;1.57;;
5549;SDS011;2798;42.716;23.256;2023-03-02T03:46:32;2.20;;;1.30;;
5549;SDS011;2798;42.716;23.256;2023-03-02T03:48:57;2.00;;;1.60;;
5549;SDS011;2798;42.716;23.256;2023-03-02T03:51:23;2.00;;;1.50;;
5549;SDS011;2798;42.716;23.256;2023-03-02T03:53:48;1.70;;;1.60;;
5549;SDS011;2798;42.716;23.256;2023-03-02T03:56:33;1.57;;;1.33;;
5549;SDS011;2798;42.716;23.256;2023-03-02T03:58:59;1.67;;;1.40;;
5549;SDS011;2798;42.716;23.256;2023-03-02T04:01:38;1.73;;;1.37;;
5549;SDS011;2798;42.716;23.256;2023-03-02T04:04:05;1.50;;;1.40;;
5549;SDS011;2798;42.716;23.256;2023-03-02T04:06:30;1.47;;;1.37;;
5549;SDS011;2798;42.716;23.256;2023-03-02T04:08:56;1.37;;;1.27;;
5549;SDS011;2798;42.716;23.256;2023-03-02T04:11:21;1.70;;;1.23;;
5549;SDS011;2798;42.716;23.256;2023-03-02T04:13:47;1.70;;;1.60;;
5549;SDS011;2798;42.716;23.256;2023-03-02T04:16:13;2.13;;;1.47;;
5549;SDS011;2798;42.716;23.256;2023-03-02T04:18:38;1.03;;;1.03;;
5549;SDS011;2798;42.716;23.256;2023-03-02T04:21:04;1.20;;;1.20;;
5549;SDS011;2798;42.716;23.256;2023-03-02T04:23:29;1.50;;;1.40;;
5549;SDS011;2798;42.716;23.256;2023-03-02T04:25:54;1.20;;;1.10;;
5549;SDS011;2798;42.716;23.256;2023-03-02T04:28:19;1.40;;;1.30;;
5549;SDS011;2798;42.716;23.256;2023-03-02T04:30:45;1.33;;;1.23;;
5549;SDS011;2798;42.716;23.256;2023-03-02T04:33:10;1.20;;;1.10;;
5549;SDS011;2798;42.716;23.256;2023-03-02T04:35:35;1.73;;;1.57;;
5549;SDS011;2798;42.716;23.256;2023-03-02T04:38:01;1.30;;;1.20;;
5549;SDS011;2798;42.716;23.256;2023-03-02T04:40:26;1.50;;;1.40;;
5549;SDS011;2798;42.716;23.256;2023-03-02T04:42:52;1.53;;;1.43;;
5549;SDS011;2798;42.716;23.256;2023-03-02T04:45:17;1.83;;;1.40;;
5549;SDS011;2798;42.716;23.256;2023-03-02T04:47:42;1.67;;;1.57;;
5549;SDS011;2798;42.716;23.256;2023-03-02T04:50:08;2.53;;;1.90;;
5549;SDS011;2798;42.716;23.256;2023-03-02T04:52:34;1.70;;;1.60;;
5549;SDS011;2798;42.716;23.256;2023-03-02T04:54:59;1.70;;;1.60;;
5549;SDS011;2798;42.716;23.256;2023-03-02T04:57:25;1.80;;;1.70;;
5549;SDS011;2798;42.716;23.256;2023-03-02T04:59:50;2.20;;;1.77;;
5549;SDS011;2798;42.716;23.256;2023-03-02T05:02:15;2.00;;;1.90;;
5549;SDS011;2798;42.716;23.256;2023-03-02T05:04:41;2.00;;;1.50;;
5549;SDS011;2798;42.716;23.256;2023-03-02T05:07:07;1.90;;;1.80;;
5549;SDS011;2798;42.716;23.256;2023-03-02T05:09:32;2.00;;;1.90;;
5549;SDS011;2798;42.716;23.256;2023-03-02T05:11:58;1.70;;;1.60;;
5549;SDS011;2798;42.716;23.256;2023-03-02T05:14:23;2.27;;;2.07;;
5549;SDS011;2798;42.716;23.256;2023-03-02T05:16:49;2.20;;;2.00;;
5549;SDS011;2798;42.716;23.256;2023-03-02T05:19:14;2.00;;;1.90;;
5549;SDS011;2798;42.716;23.256;2023-03-02T05:21:40;2.10;;;2.00;;
5549;SDS011;2798;42.716;23.256;2023-03-02T05:24:05;2.30;;;2.10;;
5549;SDS011;2798;42.716;23.256;2023-03-02T05:26:31;4.37;;;2.03;;
5549;SDS011;2798;42.716;23.256;2023-03-02T05:28:56;2.10;;;2.00;;
5549;SDS011;2798;42.716;23.256;2023-03-02T05:31:32;2.20;;;2.10;;
5549;SDS011;2798;42.716;23.256;2023-03-02T05:34:01;2.50;;;2.00;;
5549;SDS011;2798;42.716;23.256;2023-03-02T05:36:27;3.70;;;2.10;;
5549;SDS011;2798;42.716;23.256;2023-03-02T05:38:52;2.30;;;1.70;;
5549;SDS011;2798;42.716;23.256;2023-03-02T05:41:17;2.23;;;2.03;;
5549;SDS011;2798;42.716;23.256;2023-03-02T05:43:43;2.10;;;2.00;;
5549;SDS011;2798;42.716;23.256;2023-03-02T05:46:08;2.50;;;2.30;;
5549;SDS011;2798;42.716;23.256;2023-03-02T05:48:34;3.60;;;2.03;;
5549;SDS011;2798;42.716;23.256;2023-03-02T05:50:59;2.23;;;2.10;;
5549;SDS011;2798;42.716;23.256;2023-03-02T05:53:24;3.23;;;2.10;;
5549;SDS011;2798;42.716;23.256;2023-03-02T05:55:50;2.20;;;2.10;;
5549;SDS011;2798;42.716;23.256;2023-03-02T05:58:16;2.50;;;2.30;;
5549;SDS011;2798;42.716;23.256;2023-03-02T06:00:42;4.40;;;2.40;;
5549;SDS011;2798;42.716;23.256;2023-03-02T06:03:08;3.70;;;2.43;;
5549;SDS011;2798;42.716;23.256;2023-03-02T06:05:33;2.23;;;2.13;;
5549;SDS011;2798;42.716;23.256;2023-03-02T06:07:58;3.10;;;2.37;;
5549;SDS011;2798;42.716;23.256;2023-03-02T06:10:24;2.50;;;2.30;;
5549;SDS011;2798;42.716;23.256;2023-03-02T06:12:49;4.50;;;2.50;;
5549;SDS011;2798;42.716;23.256;2023-03-02T06:15:15;4.20;;;2.73;;
5549;SDS011;2798;42.716;23.256;2023-03-02T06:17:40;2.43;;;2.23;;
5549;SDS011;2798;42.716;23.256;2023-03-02T06:20:06;2.53;;;2.27;;
5549;SDS011;2798;42.716;23.256;2023-03-02T06:22:41;2.57;;;2.37;;
5549;SDS011;2798;42.716;23.256;2023-03-02T06:25:09;3.10;;;2.43;;
5549;SDS011;2798;42.716;23.256;2023-03-02T06:27:36;2.90;;;2.70;;
5549;SDS011;2798;42.716;23.256;2023-03-02T06:30:01;3.10;;;2.70;;
5549;SDS011;2798;42.716;23.256;2023-03-02T06:32:26;2.73;;;2.43;;
5549;SDS011;2798;42.716;23.256;2023-03-02T06:34:53;2.87;;;2.57;;
5549;SDS011;2798;42.716;23.256;2023-03-02T06:37:18;4.17;;;2.87;;
5549;SDS011;2798;42.716;23.256;2023-03-02T06:39:43;2.63;;;2.43;;
5549;SDS011;2798;42.716;23.256;2023-03-02T06:42:08;3.93;;;2.53;;
5549;SDS011;2798;42.716;23.256;2023-03-02T06:44:33;2.77;;;2.57;;
5549;SDS011;2798;42.716;23.256;2023-03-02T06:46:59;2.87;;;2.47;;
5549;SDS011;2798;42.716;23.256;2023-03-02T06:49:24;5.43;;;2.83;;
5549;SDS011;2798;42.716;23.256;2023-03-02T06:51:49;4.33;;;3.43;;
5549;SDS011;2798;42.716;23.256;2023-03-02T06:54:15;3.33;;;3.00;;
5549;SDS011;2798;42.716;23.256;2023-03-02T06:56:40;3.40;;;3.10;;
5549;SDS011;2798;42.716;23.256;2023-03-02T06:59:05;5.00;;;2.73;;
5549;SDS011;2798;42.716;23.256;2023-03-02T07:01:30;7.53;;;2.70;;
5549;SDS011;2798;42.716;23.256;2023-03-02T07:03:59;2.97;;;2.77;;
5549;SDS011;2798;42.716;23.256;2023-03-02T07:06:24;4.97;;;3.23;;
5549;SDS011;2798;42.716;23.256;2023-03-02T07:08:50;6.90;;;3.17;;
5549;SDS011;2798;42.716;23.256;2023-03-02T07:11:15;2.83;;;2.63;;
5549;SDS011;2798;42.716;23.256;2023-03-02T07:13:40;4.33;;;2.60;;
5549;SDS011;2798;42.716;23.256;2023-03-02T07:16:06;3.30;;;3.00;;
5549;SDS011;2798;42.716;23.256;2023-03-02T07:18:32;3.57;;;3.27;;
5549;SDS011;2798;42.716;23.256;2023-03-02T07:20:57;4.73;;;3.03;;
5549;SDS011;2798;42.716;23.256;2023-03-02T07:23:22;3.10;;;2.80;;
5549;SDS011;2798;42.716;23.256;2023-03-02T07:25:47;3.10;;;2.80;;
5549;SDS011;2798;42.716;23.256;2023-03-02T07:28:13;3.53;;;2.47;;
5549;SDS011;2798;42.716;23.256;2023-03-02T07:30:38;2.80;;;2.60;;
5549;SDS011;2798;42.716;23.256;2023-03-02T07:33:03;3.90;;;3.20;;
5549;SDS011;2798;42.716;23.256;2023-03-02T07:35:28;7.60;;;3.07;;
5549;SDS011;2798;42.716;23.256;2023-03-02T07:37:54;3.00;;;2.70;;
5549;SDS011;2798;42.716;23.256;2023-03-02T07:40:19;3.37;;;2.80;;
5549;SDS011;2798;42.716;23.256;2023-03-02T07:42:44;3.33;;;2.67;;
5549;SDS011;2798;42.716;23.256;2023-03-02T07:45:10;3.63;;;3.00;;
5549;SDS011;2798;42.716;23.256;2023-03-02T07:47:35;5.80;;;3.20;;
5549;SDS011;2798;42.716;23.256;2023-03-02T07:50:01;4.37;;;3.40;;
5549;SDS011;2798;42.716;23.256;2023-03-02T07:52:27;3.20;;;2.80;;
5549;SDS011;2798;42.716;23.256;2023-03-02T07:54:52;5.57;;;3.30;;
5549;SDS011;2798;42.716;23.256;2023-03-02T07:57:17;3.50;;;3.00;;
5549;SDS011;2798;42.716;23.256;2023-03-02T07:59:43;3.63;;;3.27;;
5549;SDS011;2798;42.716;23.256;2023-03-02T08:02:11;3.07;;;2.80;;
5549;SDS011;2798;42.716;23.256;2023-03-02T08:04:38;3.53;;;2.97;;
5549;SDS011;2798;42.716;23.256;2023-03-02T08:07:03;5.17;;;3.50;;
5549;SDS011;2798;42.716;23.256;2023-03-02T08:09:28;3.80;;;3.20;;
5549;SDS011;2798;42.716;23.256;2023-03-02T08:11:54;3.63;;;3.33;;
5549;SDS011;2798;42.716;23.256;2023-03-02T08:14:19;3.50;;;3.07;;
5549;SDS011;2798;42.716;23.256;2023-03-02T08:16:44;5.90;;;3.20;;
5549;SDS011;2798;42.716;23.256;2023-03-02T08:19:10;3.27;;;2.97;;
5549;SDS011;2798;42.716;23.256;2023-03-02T08:21:35;4.23;;;3.17;;
5549;SDS011;2798;42.716;23.256;2023-03-02T08:24:01;3.87;;;2.87;;
5549;SDS011;2798;42.716;23.256;2023-03-02T08:26:27;4.30;;;3.40;;
5549;SDS011;2798;42.716;23.256;2023-03-02T08:28:52;4.63;;;3.47;;
5549;SDS011;2798;42.716;23.256;2023-03-02T08:31:17;3.07;;;2.53;;
5549;SDS011;2798;42.716;23.256;2023-03-02T08:33:43;4.87;;;2.77;;
5549;SDS011;2798;42.716;23.256;2023-03-02T08:36:11;3.73;;;2.77;;
5549;SDS011;2798;42.716;23.256;2023-03-02T08:38:37;4.27;;;2.90;;
5549;SDS011;2798;42.716;23.256;2023-03-02T08:41:06;4.90;;;3.17;;
5549;SDS011;2798;42.716;23.256;2023-03-02T08:43:32;4.00;;;3.17;;
5549;SDS011;2798;42.716;23.256;2023-03-02T08:45:57;5.57;;;3.23;;
5549;SDS011;2798;42.716;23.256;2023-03-02T08:48:23;7.17;;;3.37;;
5549;SDS011;2798;42.716;23.256;2023-03-02T08:50:53;3.17;;;2.80;;
5549;SDS011;2798;42.716;23.256;2023-03-02T08:53:18;2.93;;;2.70;;
5549;SDS011;2798;42.716;23.256;2023-03-02T08:55:43;3.33;;;3.03;;
5549;SDS011;2798;42.716;23.256;2023-03-02T08:58:08;3.53;;;2.83;;
5549;SDS011;2798;42.716;23.256;2023-03-02T09:00:34;4.93;;;3.20;;
5549;SDS011;2798;42.716;23.256;2023-03-02T09:02:59;4.53;;;3.20;;
5549;SDS011;2798;42.716;23.256;2023-03-02T09:05:26;4.70;;;3.73;;
5549;SDS011;2798;42.716;23.256;2023-03-02T09:07:51;5.30;;;3.67;;
5549;SDS011;2798;42.716;23.256;2023-03-02T09:10:16;3.93;;;3.50;;
5549;SDS011;2798;42.716;23.256;2023-03-02T09:12:42;4.93;;;3.73;;
5549;SDS011;2798;42.716;23.256;2023-03-02T09:15:07;5.47;;;3.83;;
5549;SDS011;2798;42.716;23.256;2023-03-02T09:17:32;4.13;;;3.60;;
5549;SDS011;2798;42.716;23.256;2023-03-02T09:19:57;6.53;;;3.27;;
5549;SDS011;2798;42.716;23.256;2023-03-02T09:22:24;5.93;;;4.20;;
5549;SDS011;2798;42.716;23.256;2023-03-02T09:24:49;3.87;;;3.50;;
5549;SDS011;2798;42.716;23.256;2023-03-02T09:27:14;3.33;;;3.03;;
5549;SDS011;2798;42.716;23.256;2023-03-02T09:29:40;3.07;;;2.80;;
5549;SDS011;2798;42.716;23.256;2023-03-02T09:32:05;3.50;;;3.20;;
5549;SDS011;2798;42.716;23.256;2023-03-02T09:34:30;3.27;;;3.00;;
5549;SDS011;2798;42.716;23.256;2023-03-02T09:36:55;5.23;;;3.23;;
5549;SDS011;2798;42.716;23.256;2023-03-02T09:39:21;5.80;;;3.93;;
5549;SDS011;2798;42.716;23.256;2023-03-02T09:44:35;3.70;;;3.30;;
5549;SDS011;2798;42.716;23.256;2023-03-02T09:47:03;3.73;;;3.33;;
5549;SDS011;2798;42.716;23.256;2023-03-02T09:54:40;2.80;;;2.60;;
5549;SDS011;2798;42.716;23.256;2023-03-02T09:57:26;3.63;;;3.33;;
5549;SDS011;2798;42.716;23.256;2023-03-02T09:59:56;3.57;;;3.27;;
5549;SDS011;2798;42.716;23.256;2023-03-02T10:04:54;3.33;;;3.03;;
5549;SDS011;2798;42.716;23.256;2023-03-02T10:09:45;3.47;;;3.17;;
5549;SDS011;2798;42.716;23.256;2023-03-02T10:17:33;4.20;;;3.60;;
5549;SDS011;2798;42.716;23.256;2023-03-02T10:20:08;3.90;;;3.50;;
5549;SDS011;2798;42.716;23.256;2023-03-02T10:22:36;4.13;;;3.70;;
5549;SDS011;2798;42.716;23.256;2023-03-02T10:27:43;3.97;;;3.67;;
5549;SDS011;2798;42.716;23.256;2023-03-02T10:30:22;3.70;;;3.40;;
5549;SDS011;2798;42.716;23.256;2023-03-02T10:32:52;3.83;;;3.53;;
5549;SDS011;2798;42.716;23.256;2023-03-02T10:35:20;4.90;;;4.00;;
5549;SDS011;2798;42.716;23.256;2023-03-02T10:37:46;4.53;;;4.00;;
5549;SDS011;2798;42.716;23.256;2023-03-02T10:40:19;4.40;;;3.90;;
5549;SDS011;2798;42.716;23.256;2023-03-02T10:42:46;4.00;;;3.40;;
5549;SDS011;2798;42.716;23.256;2023-03-02T10:47:47;9.00;;;3.70;;
5549;SDS011;2798;42.716;23.256;2023-03-02T10:50:21;3.80;;;3.47;;
5549;SDS011;2798;42.716;23.256;2023-03-02T10:52:47;3.47;;;3.17;;
5549;SDS011;2798;42.716;23.256;2023-03-02T10:55:13;3.87;;;3.57;;
5549;SDS011;2798;42.716;23.256;2023-03-02T10:57:40;4.93;;;3.77;;
5549;SDS011;2798;42.716;23.256;2023-03-02T11:00:14;3.87;;;3.40;;
5549;SDS011;2798;42.716;23.256;2023-03-02T11:02:46;3.80;;;3.17;;
5549;SDS011;2798;42.716;23.256;2023-03-02T11:10:18;3.60;;;3.30;;
5549;SDS011;2798;42.716;23.256;2023-03-02T11:12:45;3.50;;;3.10;;
5549;SDS011;2798;42.716;23.256;2023-03-02T11:15:13;2.83;;;2.60;;
5549;SDS011;2798;42.716;23.256;2023-03-02T11:17:40;3.60;;;3.30;;
5549;SDS011;2798;42.716;23.256;2023-03-02T11:20:08;4.00;;;3.63;;
5549;SDS011;2798;42.716;23.256;2023-03-02T11:22:39;3.43;;;3.13;;
5549;SDS011;2798;42.716;23.256;2023-03-02T11:25:05;3.57;;;3.23;;
5549;SDS011;2798;42.716;23.256;2023-03-02T11:27:33;4.10;;;3.30;;
5549;SDS011;2798;42.716;23.256;2023-03-02T11:30:18;3.60;;;3.30;;
5549;SDS011;2798;42.716;23.256;2023-03-02T11:32:52;5.73;;;3.50;;
5549;SDS011;2798;42.716;23.256;2023-03-02T11:35:33;3.67;;;3.23;;
5549;SDS011;2798;42.716;23.256;2023-03-02T11:38:03;3.07;;;2.83;;
5549;SDS011;2798;42.716;23.256;2023-03-02T11:40:48;2.83;;;2.63;;
5549;SDS011;2798;42.716;23.256;2023-03-02T11:43:15;4.70;;;2.73;;
5549;SDS011;2798;42.716;23.256;2023-03-02T11:45:44;3.80;;;3.20;;
5549;SDS011;2798;42.716;23.256;2023-03-02T11:51:40;2.90;;;2.63;;
5549;SDS011;2798;42.716;23.256;2023-03-02T11:54:23;2.70;;;2.50;;
5549;SDS011;2798;42.716;23.256;2023-03-02T11:56:18;2.70;;;2.50;;
5549;SDS011;2798;42.716;23.256;2023-03-02T11:58:44;6.60;;;3.00;;
5549;SDS011;2798;42.716;23.256;2023-03-02T12:01:12;2.83;;;2.63;;
5549;SDS011;2798;42.716;23.256;2023-03-02T12:03:39;4.10;;;3.37;;
5549;SDS011;2798;42.716;23.256;2023-03-02T12:08:46;4.03;;;2.87;;
5549;SDS011;2798;42.716;23.256;2023-03-02T12:13:40;3.50;;;3.20;;
5549;SDS011;2798;42.716;23.256;2023-03-02T12:18:49;4.40;;;2.97;;
5549;SDS011;2798;42.716;23.256;2023-03-02T12:21:16;4.90;;;3.80;;
5549;SDS011;2798;42.716;23.256;2023-03-02T12:28:55;5.30;;;3.60;;
5549;SDS011;2798;42.716;23.256;2023-03-02T12:31:20;4.50;;;3.30;;
5549;SDS011;2798;42.716;23.256;2023-03-02T12:33:47;6.63;;;3.87;;
5549;SDS011;2798;42.716;23.256;2023-03-02T12:36:23;3.23;;;2.70;;
5549;SDS011;2798;42.716;23.256;2023-03-02T12:41:44;3.80;;;3.17;;
5549;SDS011;2798;42.716;23.256;2023-03-02T12:44:19;3.33;;;3.03;;
5549;SDS011;2798;42.716;23.256;2023-03-02T12:46:47;3.70;;;3.40;;
5549;SDS011;2798;42.716;23.256;2023-03-02T12:51:53;3.90;;;3.17;;
5549;SDS011;2798;42.716;23.256;2023-03-02T12:54:20;4.80;;;3.50;;
5549;SDS011;2798;42.716;23.256;2023-03-02T12:56:45;4.90;;;3.30;;
5549;SDS011;2798;42.716;23.256;2023-03-02T12:59:21;3.20;;;2.90;;
5549;SDS011;2798;42.716;23.256;2023-03-02T13:01:47;4.33;;;2.80;;
5549;SDS011;2798;42.716;23.256;2023-03-02T13:04:22;3.97;;;3.57;;
5549;SDS011;2798;42.716;23.256;2023-03-02T13:06:48;3.77;;;2.90;;
5549;SDS011;2798;42.716;23.256;2023-03-02T13:09:13;3.97;;;3.30;;
5549;SDS011;2798;42.716;23.256;2023-03-02T13:11:39;3.90;;;3.07;;
5549;SDS011;2798;42.716;23.256;2023-03-02T13:14:16;3.60;;;2.93;;
5549;SDS011;2798;42.716;23.256;2023-03-02T13:16:42;3.10;;;2.80;;
5549;SDS011;2798;42.716;23.256;2023-03-02T13:19:11;4.53;;;2.47;;
5549;SDS011;2798;42.716;23.256;2023-03-02T13:21:40;3.23;;;2.80;;
5549;SDS011;2798;42.716;23.256;2023-03-02T13:26:56;3.80;;;2.83;;
5549;SDS011;2798;42.716;23.256;2023-03-02T13:29:24;3.80;;;3.20;;
5549;SDS011;2798;42.716;23.256;2023-03-02T13:31:50;4.50;;;3.07;;
5549;SDS011;2798;42.716;23.256;2023-03-02T13:34:22;3.10;;;2.57;;
5549;SDS011;2798;42.716;23.256;2023-03-02T13:36:48;4.40;;;2.83;;
5549;SDS011;2798;42.716;23.256;2023-03-02T13:39:17;4.83;;;2.83;;
5549;SDS011;2798;42.716;23.256;2023-03-02T13:41:51;4.33;;;2.50;;
5549;SDS011;2798;42.716;23.256;2023-03-02T13:44:17;4.77;;;3.17;;
5549;SDS011;2798;42.716;23.256;2023-03-02T13:46:47;3.40;;;2.77;;
5549;SDS011;2798;42.716;23.256;2023-03-02T13:49:12;3.40;;;2.80;;
5549;SDS011;2798;42.716;23.256;2023-03-02T13:51:39;6.60;;;3.23;;
5549;SDS011;2798;42.716;23.256;2023-03-02T13:54:08;6.13;;;4.20;;
5549;SDS011;2798;42.716;23.256;2023-03-02T13:56:36;4.60;;;3.37;;
5549;SDS011;2798;42.716;23.256;2023-03-02T13:59:02;3.17;;;2.87;;
5549;SDS011;2798;42.716;23.256;2023-03-02T14:01:28;4.17;;;3.70;;
5549;SDS011;2798;42.716;23.256;2023-03-02T14:03:53;6.40;;;3.53;;
5549;SDS011;2798;42.716;23.256;2023-03-02T14:06:19;6.03;;;3.90;;
5549;SDS011;2798;42.716;23.256;2023-03-02T14:08:44;7.73;;;5.23;;
5549;SDS011;2798;42.716;23.256;2023-03-02T14:11:10;5.33;;;4.30;;
5549;SDS011;2798;42.716;23.256;2023-03-02T14:13:40;6.57;;;5.00;;
5549;SDS011;2798;42.716;23.256;2023-03-02T14:16:09;6.40;;;4.60;;
5549;SDS011;2798;42.716;23.256;2023-03-02T14:18:36;6.87;;;5.00;;
5549;SDS011;2798;42.716;23.256;2023-03-02T14:21:02;5.63;;;4.70;;
5549;SDS011;2798;42.716;23.256;2023-03-02T14:23:28;8.13;;;4.83;;
5549;SDS011;2798;42.716;23.256;2023-03-02T14:25:53;6.90;;;4.93;;
5549;SDS011;2798;42.716;23.256;2023-03-02T14:31:10;4.93;;;4.30;;
5549;SDS011;2798;42.716;23.256;2023-03-02T14:33:36;4.73;;;3.90;;
5549;SDS011;2798;42.716;23.256;2023-03-02T14:36:02;5.03;;;4.50;;
5549;SDS011;2798;42.716;23.256;2023-03-02T14:38:28;5.40;;;4.43;;
5549;SDS011;2798;42.716;23.256;2023-03-02T14:40:53;9.20;;;5.43;;
5549;SDS011;2798;42.716;23.256;2023-03-02T14:43:19;7.40;;;5.10;;
5549;SDS011;2798;42.716;23.256;2023-03-02T14:45:45;8.23;;;4.63;;
5549;SDS011;2798;42.716;23.256;2023-03-02T14:48:10;7.13;;;5.27;;
5549;SDS011;2798;42.716;23.256;2023-03-02T14:50:37;8.23;;;5.60;;
5549;SDS011;2798;42.716;23.256;2023-03-02T14:53:04;6.20;;;4.37;;
5549;SDS011;2798;42.716;23.256;2023-03-02T14:55:30;5.33;;;4.30;;
5549;SDS011;2798;42.716;23.256;2023-03-02T14:58:03;5.13;;;4.63;;
5549;SDS011;2798;42.716;23.256;2023-03-02T15:00:28;4.97;;;4.27;;
5549;SDS011;2798;42.716;23.256;2023-03-02T15:02:53;4.93;;;3.90;;
5549;SDS011;2798;42.716;23.256;2023-03-02T15:05:19;4.53;;;3.43;;
5549;SDS011;2798;42.716;23.256;2023-03-02T15:07:44;6.70;;;4.37;;
5549;SDS011;2798;42.716;23.256;2023-03-02T15:10:14;5.03;;;3.57;;
5549;SDS011;2798;42.716;23.256;2023-03-02T15:12:39;8.60;;;4.53;;
5549;SDS011;2798;42.716;23.256;2023-03-02T15:15:05;5.17;;;4.10;;
5549;SDS011;2798;42.716;23.256;2023-03-02T15:17:30;5.40;;;4.43;;
5549;SDS011;2798;42.716;23.256;2023-03-02T15:19:55;5.33;;;4.20;;
5549;SDS011;2798;42.716;23.256;2023-03-02T15:22:21;4.80;;;4.13;;
5549;SDS011;2798;42.716;23.256;2023-03-02T15:24:46;5.67;;;4.47;;
5549;SDS011;2798;42.716;23.256;2023-03-02T15:27:11;5.10;;;4.20;;
5549;SDS011;2798;42.716;23.256;2023-03-02T15:29:36;5.63;;;4.00;;
5549;SDS011;2798;42.716;23.256;2023-03-02T15:32:02;7.53;;;4.60;;
5549;SDS011;2798;42.716;23.256;2023-03-02T15:34:27;6.23;;;4.23;;
5549;SDS011;2798;42.716;23.256;2023-03-02T15:36:52;5.87;;;4.80;;
5549;SDS011;2798;42.716;23.256;2023-03-02T15:39:17;9.23;;;4.00;;
5549;SDS011;2798;42.716;23.256;2023-03-02T15:41:43;7.03;;;4.67;;
5549;SDS011;2798;42.716;23.256;2023-03-02T15:44:14;5.13;;;4.43;;
5549;SDS011;2798;42.716;23.256;2023-03-02T15:46:40;7.97;;;4.47;;
5549;SDS011;2798;42.716;23.256;2023-03-02T15:49:05;8.30;;;5.20;;
5549;SDS011;2798;42.716;23.256;2023-03-02T15:51:30;6.30;;;4.30;;
5549;SDS011;2798;42.716;23.256;2023-03-02T15:53:56;8.73;;;4.63;;
5549;SDS011;2798;42.716;23.256;2023-03-02T15:56:22;6.63;;;4.73;;
5549;SDS011;2798;42.716;23.256;2023-03-02T15:58:47;6.73;;;4.77;;
5549;SDS011;2798;42.716;23.256;2023-03-02T16:01:13;6.40;;;4.40;;
5549;SDS011;2798;42.716;23.256;2023-03-02T16:03:40;6.17;;;4.87;;
5549;SDS011;2798;42.716;23.256;2023-03-02T16:06:05;6.20;;;4.57;;